Saint-Simon-De-Rimouski, Canada
Current Conditions -  °F | °C
As of 8:00 PM on Friday 19 Dec 2014 (Local Time) from CYYY Reporting Station
Scattered Clouds Scattered Clouds  
Wind Chill: 11°   Ceiling: Unl
Heat Index: 25°   Visibility: 30mi
Dew Point: 18°   Wind: 18mph
Humidity: 74%   Direction: 20°NNE
Pressure: 30.13"   Gusts: NA
Location:  48.2°N, 69.02°W
Report Text: CYYY 200100Z 02016KT 30SM SCT020 M04/M08 A3013 RMK SC3 SLP207
Loading
Personal Weather Stations






























Interactive Weather Map New forecast layout! Learn more

10-Day Weather Forecast

Advertisements
Track Severe Weather on mobile